Time;durP1;ratioP1;P1;durP2;ratioP2;P2;SDS_P1;SDS_P2;PMS_P1;PMS_P2;Temp;Humidity;BMP_temperature;BMP_pressure;BME280_temperature;BME280_humidity;BME280_pressure;Samples;Min_cycle;Max_cycle;Signal;HPM_P1;HPM_P2
2022/12/03 00:01:44;;;;;;;27.33;18.65;;;4.40;99.90;;;;;;4853402;29;20082;-77
2022/12/03 00:04:10;;;;;;;28.90;20.23;;;4.50;99.90;;;;;;4856038;29;20488;-78
2022/12/03 00:06:35;;;;;;;30.08;20.23;;;4.50;99.90;;;;;;4864480;29;20550;-78
2022/12/03 00:09:02;;;;;;;32.70;20.63;;;4.50;99.90;;;;;;4864264;29;20045;-78
2022/12/03 00:11:28;;;;;;;29.35;19.70;;;4.40;99.90;;;;;;4860647;29;20533;-78
2022/12/03 00:13:53;;;;;;;29.95;19.73;;;4.40;99.90;;;;;;4850849;29;20124;-77
2022/12/03 00:16:19;;;;;;;31.52;19.67;;;4.40;99.90;;;;;;4856135;29;20053;-77
2022/12/03 00:18:44;;;;;;;31.23;19.63;;;4.40;99.90;;;;;;4859360;29;20056;-78
2022/12/03 00:21:10;;;;;;;32.40;20.70;;;4.40;99.90;;;;;;4864415;29;20053;-79
2022/12/03 00:23:35;;;;;;;31.90;20.35;;;4.40;99.90;;;;;;4864253;29;20187;-79
2022/12/03 00:26:02;;;;;;;29.15;19.48;;;4.30;99.90;;;;;;4864989;29;20470;-79
2022/12/03 00:28:28;;;;;;;35.85;20.45;;;4.30;99.90;;;;;;4864356;29;20144;-77
2022/12/03 00:30:54;;;;;;;28.15;19.35;;;4.30;99.90;;;;;;4864574;29;20037;-78
2022/12/03 00:33:20;;;;;;;31.17;21.10;;;4.20;99.90;;;;;;4862719;29;20048;-78
2022/12/03 00:35:46;;;;;;;29.77;19.67;;;4.20;99.90;;;;;;4852366;29;20197;-76
2022/12/03 00:38:12;;;;;;;33.30;19.27;;;4.20;99.90;;;;;;4856235;29;20183;-76
2022/12/03 00:40:37;;;;;;;29.98;19.60;;;4.30;99.90;;;;;;4859027;29;20033;-78
2022/12/03 00:43:03;;;;;;;34.63;20.23;;;4.30;99.90;;;;;;4864293;29;20052;-78
2022/12/03 00:45:29;;;;;;;31.35;19.35;;;4.30;99.90;;;;;;4861965;29;20043;-78
2022/12/03 00:47:54;;;;;;;26.88;18.92;;;4.30;99.90;;;;;;4861526;29;20037;-77
2022/12/03 00:50:20;;;;;;;27.98;19.33;;;4.30;99.90;;;;;;4858153;29;20384;-78
2022/12/03 00:52:46;;;;;;;29.98;19.75;;;4.30;99.90;;;;;;4864379;29;20040;-76
2022/12/03 00:55:11;;;;;;;37.13;20.83;;;4.30;99.90;;;;;;4859506;29;20143;-76
2022/12/03 00:57:37;;;;;;;29.42;18.95;;;4.30;99.90;;;;;;4859357;29;20831;-75
2022/12/03 01:00:04;;;;;;;27.67;19.05;;;4.30;99.90;;;;;;4862192;29;20088;-77
2022/12/03 01:02:30;;;;;;;29.52;17.88;;;4.30;99.90;;;;;;4863804;29;20052;-77
2022/12/03 01:04:55;;;;;;;32.47;18.65;;;4.40;99.90;;;;;;4861397;29;20102;-77
2022/12/03 01:07:21;;;;;;;29.45;18.90;;;4.40;99.90;;;;;;4855874;29;20136;-77
2022/12/03 01:09:47;;;;;;;28.45;18.67;;;4.30;99.90;;;;;;4863526;29;20069;-77
2022/12/03 01:12:13;;;;;;;28.27;18.42;;;4.20;99.90;;;;;;4864269;29;20133;-77
2022/12/03 01:14:38;;;;;;;28.05;18.27;;;4.30;99.90;;;;;;4850186;29;20049;-76
2022/12/03 01:17:05;;;;;;;27.77;17.77;;;4.30;99.90;;;;;;4839212;29;20550;-76
2022/12/03 01:19:34;;;;;;;31.10;19.00;;;4.30;99.90;;;;;;4857281;29;20660;-76
2022/12/03 01:21:59;;;;;;;29.48;18.95;;;4.30;99.90;;;;;;4864356;29;20056;-76
2022/12/03 01:24:25;;;;;;;31.13;18.13;;;4.30;99.90;;;;;;4864720;29;20057;-76
2022/12/03 01:26:51;;;;;;;32.20;19.45;;;4.30;99.90;;;;;;4862327;29;20033;-77
2022/12/03 01:29:16;;;;;;;34.88;19.17;;;4.30;99.90;;;;;;4864188;29;20060;-80
2022/12/03 01:34:26;;;;;;;27.85;18.42;;;4.30;99.90;;;;;;4852718;29;20071;-79
2022/12/03 01:36:52;;;;;;;29.38;18.67;;;4.30;99.90;;;;;;4848263;29;20033;-80
2022/12/03 01:39:18;;;;;;;28.90;18.40;;;4.40;99.90;;;;;;4854417;29;20117;-73
2022/12/03 01:41:45;;;;;;;28.15;18.65;;;4.40;99.90;;;;;;4848384;29;20545;-73
2022/12/03 01:44:18;;;;;;;27.20;17.75;;;4.40;99.90;;;;;;4847906;29;20053;-73
2022/12/03 01:46:45;;;;;;;29.23;18.00;;;4.40;99.90;;;;;;4842185;29;20044;-73
2022/12/03 01:49:18;;;;;;;31.35;18.63;;;4.40;99.90;;;;;;4846452;29;20045;-73
2022/12/03 01:51:45;;;;;;;29.05;18.38;;;4.30;99.90;;;;;;4840625;29;20826;-73
2022/12/03 01:54:25;;;;;;;30.92;18.08;;;4.30;99.90;;;;;;4840060;29;20045;-73
2022/12/03 01:56:53;;;;;;;24.92;16.95;;;4.30;99.90;;;;;;4852338;29;20037;-73
2022/12/03 01:59:21;;;;;;;28.60;18.50;;;4.30;99.90;;;;;;4831300;29;20110;-73
2022/12/03 02:01:47;;;;;;;25.83;17.10;;;4.30;99.90;;;;;;4845150;29;20033;-73
2022/12/03 02:04:15;;;;;;;30.50;17.77;;;4.30;99.90;;;;;;4841912;29;20072;-73
2022/12/03 02:06:42;;;;;;;28.10;17.63;;;4.30;99.90;;;;;;4843451;29;20818;-73
2022/12/03 02:09:12;;;;;;;27.55;17.83;;;4.40;99.90;;;;;;4846228;29;20052;-73
2022/12/03 02:11:49;;;;;;;28.80;17.83;;;4.40;99.90;;;;;;4847462;29;20052;-73
2022/12/03 02:14:18;;;;;;;28.05;17.42;;;4.40;99.90;;;;;;4829764;29;20048;-73
2022/12/03 02:16:45;;;;;;;30.17;17.63;;;4.40;99.90;;;;;;4848658;29;20574;-73
2022/12/03 02:19:38;;;;;;;25.95;17.10;;;4.40;99.90;;;;;;4835397;29;20145;-73
2022/12/03 02:22:03;;;;;;;;;;;4.30;99.90;;;;;;4852185;29;20140;-73
2022/12/03 02:24:37;;;;;;;26.65;16.42;;;4.30;99.90;;;;;;4866636;29;19926;-73
2022/12/03 02:27:04;;;;;;;29.35;17.77;;;4.30;99.90;;;;;;4868587;29;20758;-73
2022/12/03 02:29:29;;;;;;;27.42;17.05;;;4.40;99.90;;;;;;4862680;29;20028;-73
2022/12/03 02:31:55;;;;;;;33.00;20.65;;;4.30;99.90;;;;;;4860919;29;20045;-73
2022/12/03 02:34:36;;;;;;;32.20;20.30;;;4.30;99.90;;;;;;4859436;29;20083;-73
2022/12/03 03:16:59;;;;;;;37.72;23.23;;;4.20;99.90;;;;;;4881168;29;20063;-72
2022/12/03 03:19:25;;;;;;;36.88;23.55;;;4.30;99.90;;;;;;4866182;29;20053;-73
2022/12/03 03:21:52;;;;;;;40.33;25.40;;;4.30;99.90;;;;;;4870714;29;20049;-73
2022/12/03 03:24:18;;;;;;;39.38;24.77;;;4.40;99.90;;;;;;4866825;29;20131;-73
2022/12/03 03:26:44;;;;;;;44.35;25.50;;;4.30;99.90;;;;;;4865257;29;20424;-73
2022/12/03 03:29:10;;;;;;;45.10;26.58;;;4.30;99.90;;;;;;4865487;29;20032;-73
2022/12/03 03:31:37;;;;;;;40.00;24.88;;;4.30;99.90;;;;;;4864583;29;20033;-73
2022/12/03 03:34:02;;;;;;;42.60;25.95;;;4.30;99.90;;;;;;4866358;29;20036;-73
2022/12/03 03:36:28;;;;;;;45.47;27.10;;;4.30;99.90;;;;;;4867107;29;20601;-73
2022/12/03 03:38:54;;;;;;;45.70;26.25;;;4.30;99.90;;;;;;4869455;29;20047;-73
2022/12/03 03:41:20;;;;;;;45.22;26.58;;;4.30;99.90;;;;;;4865234;29;20148;-72
2022/12/03 03:43:47;;;;;;;40.00;25.10;;;4.20;99.90;;;;;;4867970;29;20520;-72
2022/12/03 03:46:14;;;;;;;44.22;28.55;;;4.30;99.90;;;;;;4866036;29;20151;-73
2022/12/03 03:48:41;;;;;;;52.05;30.90;;;4.30;99.90;;;;;;4861462;29;20105;-73
2022/12/03 03:51:08;;;;;;;41.92;26.95;;;4.30;99.90;;;;;;4869447;29;20039;-73
2022/12/03 03:53:36;;;;;;;41.22;26.20;;;4.30;99.90;;;;;;4863994;29;20029;-73
2022/12/03 03:56:02;;;;;;;44.25;25.65;;;4.30;99.90;;;;;;4864478;29;20140;-73
2022/12/03 03:58:27;;;;;;;45.40;27.83;;;4.30;99.90;;;;;;4863906;29;20040;-73
2022/12/03 04:00:53;;;;;;;46.08;27.92;;;4.30;99.90;;;;;;4864301;29;20045;-73
2022/12/03 04:03:18;;;;;;;47.88;29.05;;;4.30;99.90;;;;;;4849071;29;20063;-73
2022/12/03 04:05:45;;;;;;;38.83;25.83;;;4.30;99.90;;;;;;4865141;29;20140;-73
2022/12/03 04:08:11;;;;;;;45.08;25.58;;;4.30;99.90;;;;;;4843313;29;20984;-73
2022/12/03 04:13:21;;;;;;;43.03;25.00;;;4.30;99.90;;;;;;4864677;29;20055;-73
2022/12/03 04:15:46;;;;;;;47.50;27.63;;;4.30;99.90;;;;;;4862236;29;20036;-73
2022/12/03 04:22:38;;;;;;;40.50;24.20;;;4.40;99.90;;;;;;4865357;29;20086;-73
2022/12/03 04:23:42;;;;;;;42.85;24.67;;;4.40;99.90;;;;;;4863287;29;20063;-73
2022/12/03 04:28:51;;;;;;;45.95;25.02;;;4.40;99.90;;;;;;4862348;29;20148;-72
2022/12/03 04:36:46;;;;;;;48.70;26.58;;;4.40;99.90;;;;;;4864308;29;20061;-73
2022/12/03 04:39:11;;;;;;;45.60;26.85;;;4.30;99.90;;;;;;4865966;29;20045;-72
2022/12/03 04:41:37;;;;;;;44.35;26.08;;;4.30;99.90;;;;;;4866321;29;20171;-72
2022/12/03 04:46:47;;;;;;;44.50;24.92;;;4.40;99.90;;;;;;4863310;29;20043;-73
2022/12/03 04:49:12;;;;;;;62.40;34.35;;;4.40;99.90;;;;;;4864586;29;20040;-72
2022/12/03 04:51:38;;;;;;;53.05;29.30;;;4.30;99.90;;;;;;4866094;29;20043;-73
2022/12/03 04:54:04;;;;;;;43.50;26.85;;;4.40;99.90;;;;;;4862537;29;20048;-73
2022/12/03 04:56:30;;;;;;;61.65;36.67;;;4.40;99.90;;;;;;4864744;29;20083;-73
2022/12/03 04:58:55;;;;;;;44.70;26.65;;;4.40;99.90;;;;;;4865165;29;20120;-73
2022/12/03 05:01:21;;;;;;;46.95;26.15;;;4.40;99.90;;;;;;4872217;29;20045;-73
2022/12/03 05:03:47;;;;;;;47.00;28.10;;;4.40;99.90;;;;;;4871756;29;20056;-73
2022/12/03 05:06:12;;;;;;;45.88;26.75;;;4.40;99.90;;;;;;4869235;29;20036;-73
2022/12/03 05:08:38;;;;;;;45.03;25.35;;;4.40;99.90;;;;;;4873768;29;20075;-73
2022/12/03 05:11:03;;;;;;;48.05;26.77;;;4.40;99.90;;;;;;4873885;29;20589;-73
2022/12/03 05:13:29;;;;;;;46.90;26.98;;;4.40;99.90;;;;;;4871681;29;20045;-73
2022/12/03 05:15:55;;;;;;;46.45;27.80;;;4.40;99.90;;;;;;4871055;29;20056;-73
2022/12/03 05:18:20;;;;;;;47.25;27.08;;;4.40;99.90;;;;;;4870356;29;20088;-72
2022/12/03 05:20:46;;;;;;;47.05;27.48;;;4.40;99.90;;;;;;4872173;29;20064;-77
2022/12/03 05:23:13;;;;;;;57.80;35.58;;;4.40;99.90;;;;;;4879487;29;20056;-81
2022/12/03 05:25:39;;;;;;;46.30;27.27;;;4.40;99.90;;;;;;4883256;29;20214;-78
2022/12/03 05:28:06;;;;;;;43.80;25.50;;;4.40;99.90;;;;;;4883564;29;20072;-79
2022/12/03 05:30:31;;;;;;;44.35;26.45;;;4.30;99.90;;;;;;4877440;29;20039;-78
2022/12/03 05:32:57;;;;;;;48.63;27.15;;;4.30;99.90;;;;;;4876415;29;20147;-78
2022/12/03 05:35:23;;;;;;;56.38;31.15;;;4.20;99.90;;;;;;4871859;29;25415;-78
2022/12/03 05:37:49;;;;;;;47.00;26.52;;;4.20;99.90;;;;;;4870230;29;20060;-71
2022/12/03 05:40:15;;;;;;;47.95;28.08;;;4.20;99.90;;;;;;4870823;29;20167;-72
2022/12/03 05:42:53;;;;;;;49.75;26.85;;;4.20;99.90;;;;;;4873454;29;20079;-71
2022/12/03 05:45:33;;;;;;;45.20;27.30;;;4.10;99.90;;;;;;4866506;29;20037;-71
2022/12/03 05:48:00;;;;;;;53.08;31.50;;;4.20;99.90;;;;;;4868594;29;20059;-71
2022/12/03 05:50:28;;;;;;;44.17;26.75;;;4.20;99.90;;;;;;4867736;29;20036;-71
2022/12/03 05:52:55;;;;;;;42.20;25.48;;;4.20;99.90;;;;;;4872798;29;20478;-71
2022/12/03 05:55:21;;;;;;;45.03;28.30;;;4.20;99.90;;;;;;4870018;29;20025;-71
2022/12/03 05:57:46;;;;;;;48.35;29.50;;;4.20;99.90;;;;;;4868801;29;20513;-72
2022/12/03 06:00:21;;;;;;;46.85;26.85;;;4.10;99.90;;;;;;4869629;29;20045;-72
2022/12/03 06:02:47;;;;;;;58.28;34.90;;;4.10;99.90;;;;;;4868808;29;20057;-72
2022/12/03 06:05:14;;;;;;;74.28;45.53;;;4.10;99.90;;;;;;4875051;29;20047;-72
2022/12/03 06:07:40;;;;;;;65.85;42.03;;;4.20;99.90;;;;;;4866115;29;20025;-71
2022/12/03 06:10:09;;;;;;;56.58;33.55;;;4.20;99.90;;;;;;4870504;29;20537;-71
2022/12/03 06:12:35;;;;;;;57.17;34.28;;;4.20;99.90;;;;;;4869189;29;20036;-72
2022/12/03 06:15:00;;;;;;;47.03;27.00;;;4.30;99.90;;;;;;4871882;29;20051;-72
2022/12/03 06:17:26;;;;;;;46.92;27.60;;;4.20;99.90;;;;;;4870637;29;20040;-72
2022/12/03 06:19:52;;;;;;;48.33;26.65;;;4.30;99.90;;;;;;4875665;29;20037;-72
2022/12/03 06:22:18;;;;;;;49.33;27.15;;;4.30;99.90;;;;;;4857324;29;20584;-72
2022/12/03 06:24:45;;;;;;;47.80;26.23;;;4.30;99.90;;;;;;4872726;29;20052;-72
2022/12/03 06:27:11;;;;;;;47.85;26.60;;;4.40;99.90;;;;;;4870175;29;20041;-72
2022/12/03 06:29:37;;;;;;;56.42;31.55;;;4.40;99.90;;;;;;4870331;29;20148;-72
2022/12/03 06:32:03;;;;;;;48.45;28.38;;;4.40;99.90;;;;;;4868788;29;20100;-72
2022/12/03 06:34:29;;;;;;;46.85;27.48;;;4.30;99.90;;;;;;4868237;29;20810;-72
2022/12/03 06:36:55;;;;;;;41.50;26.20;;;4.30;99.90;;;;;;4870281;29;20282;-72
2022/12/03 06:39:21;;;;;;;42.65;26.83;;;4.30;99.90;;;;;;4866990;29;20056;-72
2022/12/03 06:41:47;;;;;;;48.08;27.80;;;4.30;99.90;;;;;;4868661;29;20045;-72
2022/12/03 06:44:13;;;;;;;46.03;27.10;;;4.40;99.90;;;;;;4867813;29;20131;-72
2022/12/03 06:46:38;;;;;;;49.42;26.40;;;4.50;99.90;;;;;;4855017;29;20040;-72
2022/12/03 06:49:04;;;;;;;43.30;28.08;;;4.50;99.90;;;;;;4870767;29;20048;-71
2022/12/03 06:51:30;;;;;;;53.78;27.23;;;4.50;99.90;;;;;;4873631;29;20033;-71
2022/12/03 06:53:55;;;;;;;47.22;27.10;;;4.50;99.90;;;;;;4870942;29;20044;-71
2022/12/03 06:56:21;;;;;;;47.83;26.83;;;4.50;99.90;;;;;;4874713;29;20048;-71
2022/12/03 06:58:47;;;;;;;48.33;27.73;;;4.50;99.90;;;;;;4872360;29;20032;-71
2022/12/03 07:01:13;;;;;;;47.33;26.55;;;4.50;99.90;;;;;;4875118;29;20491;-72
2022/12/03 07:03:38;;;;;;;44.30;25.65;;;4.50;99.90;;;;;;4873628;29;20059;-72
2022/12/03 07:06:04;;;;;;;48.78;28.38;;;4.50;99.90;;;;;;4873358;29;20048;-72
2022/12/03 07:08:30;;;;;;;50.72;27.50;;;4.50;99.90;;;;;;4873189;29;20091;-71
2022/12/03 07:10:55;;;;;;;48.10;27.23;;;4.50;99.90;;;;;;4862078;29;20040;-71
2022/12/03 07:13:21;;;;;;;48.58;27.02;;;4.60;99.90;;;;;;4867367;29;20049;-71
2022/12/03 07:15:47;;;;;;;46.78;25.90;;;4.60;99.90;;;;;;4864514;29;20581;-71
2022/12/03 07:18:12;;;;;;;47.58;25.75;;;4.60;99.90;;;;;;4863726;29;20052;-74
2022/12/03 07:20:38;;;;;;;43.30;27.33;;;4.60;99.90;;;;;;4863094;29;20075;-72
2022/12/03 07:23:03;;;;;;;49.92;26.95;;;4.70;99.90;;;;;;4866775;29;20140;-73
2022/12/03 07:25:29;;;;;;;48.58;28.88;;;4.70;99.90;;;;;;4874232;29;20052;-72
2022/12/03 07:27:55;;;;;;;52.78;26.92;;;4.70;99.90;;;;;;4869658;29;20044;-74
2022/12/03 07:30:20;;;;;;;47.60;27.35;;;4.70;99.90;;;;;;4867318;29;20044;-74
2022/12/03 07:32:46;;;;;;;76.57;47.17;;;4.70;99.90;;;;;;4864177;29;20047;-74
2022/12/03 07:35:12;;;;;;;66.18;40.60;;;4.70;99.90;;;;;;4866734;29;20642;-76
2022/12/03 07:37:37;;;;;;;51.90;28.67;;;4.60;99.90;;;;;;4863921;29;20449;-75
2022/12/03 07:40:04;;;;;;;54.13;33.22;;;4.60;99.90;;;;;;4867884;29;20047;-75
2022/12/03 07:42:29;;;;;;;49.03;27.20;;;4.70;99.90;;;;;;4872662;29;20067;-73
2022/12/03 07:44:55;;;;;;;46.42;27.17;;;4.70;99.90;;;;;;4874068;29;20032;-75
2022/12/03 07:47:21;;;;;;;50.65;28.35;;;4.70;99.90;;;;;;4856905;29;20325;-74
2022/12/03 07:49:46;;;;;;;46.60;27.02;;;4.70;99.90;;;;;;4867656;29;20044;-76
2022/12/03 07:52:12;;;;;;;49.03;26.92;;;4.70;99.90;;;;;;4870881;29;20044;-73
2022/12/03 07:54:37;;;;;;;55.05;31.20;;;4.80;99.90;;;;;;4875507;29;20032;-74
2022/12/03 07:57:03;;;;;;;51.58;29.08;;;4.70;99.90;;;;;;4871453;29;20045;-67
2022/12/03 07:59:29;;;;;;;50.90;31.23;;;4.70;99.90;;;;;;4875613;29;20033;-74
2022/12/03 08:01:54;;;;;;;51.20;29.25;;;4.70;99.90;;;;;;4871933;29;20049;-76
2022/12/03 08:04:20;;;;;;;46.55;28.30;;;4.80;99.90;;;;;;4878570;29;20785;-75
2022/12/03 08:06:47;;;;;;;49.10;29.30;;;4.80;99.90;;;;;;4870207;29;20039;-72
2022/12/03 08:09:13;;;;;;;55.33;29.73;;;4.90;99.90;;;;;;4862897;29;20041;-72
2022/12/03 08:11:39;;;;;;;47.28;26.55;;;4.80;99.90;;;;;;4873434;29;20052;-71
2022/12/03 08:14:17;;;;;;;46.88;26.77;;;4.70;99.90;;;;;;4874263;29;20181;-70
2022/12/03 08:16:45;;;;;;;46.17;26.10;;;4.80;99.90;;;;;;4875299;29;22745;-71
2022/12/03 08:19:15;;;;;;;45.33;27.52;;;4.70;99.90;;;;;;4896394;29;20060;-70
2022/12/03 08:21:41;;;;;;;44.92;27.00;;;4.80;99.90;;;;;;4895183;29;20277;-73
2022/12/03 08:24:17;;;;;;;45.03;26.95;;;4.80;99.90;;;;;;4880787;29;22654;-73
2022/12/03 08:26:44;;;;;;;45.10;26.33;;;4.80;99.90;;;;;;4888072;29;20110;-73
2022/12/03 08:29:11;;;;;;;45.25;26.45;;;4.80;99.90;;;;;;4893246;29;20046;-73
2022/12/03 08:31:38;;;;;;;39.47;24.67;;;4.90;99.90;;;;;;4895255;29;20550;-74
2022/12/03 08:34:18;;;;;;;40.25;24.67;;;4.90;99.90;;;;;;4895209;29;20139;-74
2022/12/03 08:36:45;;;;;;;38.20;24.83;;;5.00;99.90;;;;;;4881987;29;20478;-73
2022/12/03 08:39:33;;;;;;;37.47;23.77;;;5.00;99.90;;;;;;4894027;29;20044;-73
2022/12/03 08:42:41;;;;;;;33.13;22.58;;;5.10;99.90;;;;;;4868373;29;20964;-68
2022/12/03 08:45:29;;;;;;;43.35;27.67;;;5.10;99.90;;;;;;4891559;29;20127;-77
2022/12/03 08:48:26;;;;;;;43.60;24.52;;;5.10;99.90;;;;;;4891850;29;20037;-78
2022/12/03 08:50:54;;;;;;;37.97;23.90;;;5.10;99.90;;;;;;4870577;29;20888;-79
2022/12/03 08:53:45;;;;;;;37.45;23.60;;;5.10;99.90;;;;;;4891972;29;20118;-81
2022/12/03 08:56:23;;;;;;;39.42;24.45;;;5.10;99.90;;;;;;4889806;29;20040;-74
2022/12/03 08:58:58;;;;;;;39.47;23.85;;;5.10;99.90;;;;;;4892162;29;20036;-72
2022/12/03 09:01:29;;;;;;;40.67;24.77;;;5.20;99.90;;;;;;4891888;29;20100;-73
2022/12/03 09:03:57;;;;;;;41.80;24.40;;;5.20;99.90;;;;;;4881450;29;20143;-71
2022/12/03 09:06:23;;;;;;;38.85;25.27;;;5.20;99.90;;;;;;4879173;29;20036;-71
2022/12/03 09:08:49;;;;;;;35.80;24.67;;;5.20;99.90;;;;;;4883019;29;20051;-71
2022/12/03 09:11:14;;;;;;;38.67;26.05;;;5.10;99.90;;;;;;4881331;29;20125;-70
2022/12/03 09:13:40;;;;;;;43.80;28.60;;;5.10;99.90;;;;;;4884949;29;22119;-71
2022/12/03 09:16:06;;;;;;;36.00;24.80;;;5.10;99.90;;;;;;4888154;29;20044;-70
2022/12/03 09:18:32;;;;;;;35.58;24.17;;;5.10;99.90;;;;;;4870852;29;20056;-71
2022/12/03 09:20:58;;;;;;;44.08;28.05;;;5.10;99.90;;;;;;4868127;29;20152;-70
2022/12/03 09:23:24;;;;;;;34.90;22.98;;;5.20;99.90;;;;;;4865120;29;20056;-70
2022/12/03 09:25:49;;;;;;;49.88;35.50;;;5.20;99.90;;;;;;4863080;29;20132;-71
2022/12/03 09:28:15;;;;;;;38.72;27.95;;;5.30;99.90;;;;;;4865565;29;20040;-69
2022/12/03 09:30:41;;;;;;;39.42;25.92;;;5.30;99.90;;;;;;4870003;29;20073;-70
2022/12/03 09:33:07;;;;;;;40.03;25.08;;;5.40;99.90;;;;;;4867274;29;20131;-70
2022/12/03 09:35:33;;;;;;;40.83;24.20;;;5.30;99.90;;;;;;4857795;29;20033;-70
2022/12/03 09:37:58;;;;;;;36.30;24.42;;;5.30;99.90;;;;;;4844417;29;20040;-77
2022/12/03 09:40:24;;;;;;;43.53;22.38;;;5.30;99.90;;;;;;4863419;29;20143;-70
2022/12/03 09:42:50;;;;;;;33.85;21.60;;;5.40;99.90;;;;;;4858005;29;20060;-76
2022/12/03 09:45:17;;;;;;;37.30;24.25;;;5.50;99.90;;;;;;4859414;29;20407;-76
2022/12/03 09:47:48;;;;;;;35.95;22.77;;;5.60;99.90;;;;;;4862687;29;20032;-75
2022/12/03 09:50:21;;;;;;;35.17;23.45;;;5.60;99.90;;;;;;4844018;29;20059;-75
2022/12/03 09:52:48;;;;;;;36.58;21.80;;;5.60;99.90;;;;;;4856120;29;20146;-73
2022/12/03 09:55:19;;;;;;;32.65;22.05;;;5.60;99.90;;;;;;4848861;29;20064;-75
2022/12/03 09:57:45;;;;;;;31.37;21.93;;;5.70;99.90;;;;;;4875687;29;20037;-74
2022/12/03 10:00:23;;;;;;;34.83;22.98;;;5.70;99.90;;;;;;4869174;29;20048;-77
2022/12/03 10:02:51;;;;;;;32.17;20.92;;;5.80;99.90;;;;;;4867976;29;20036;-76
2022/12/03 10:05:21;;;;;;;35.70;21.77;;;5.70;99.90;;;;;;4864194;29;20064;-77
2022/12/03 10:07:49;;;;;;;32.10;21.60;;;5.80;99.90;;;;;;4868629;29;20045;-77
2022/12/03 10:10:20;;;;;;;28.13;21.05;;;5.80;99.90;;;;;;4874282;29;20068;-75
2022/12/03 10:12:46;;;;;;;30.50;22.40;;;5.80;99.90;;;;;;4872179;29;20029;-76
2022/12/03 10:15:14;;;;;;;31.65;20.65;;;5.80;99.90;;;;;;4876058;29;20044;-75
2022/12/03 10:17:40;;;;;;;33.17;21.67;;;5.80;99.90;;;;;;4874073;29;20044;-77
2022/12/03 10:20:09;;;;;;;32.05;20.70;;;5.80;99.90;;;;;;4872373;29;20593;-74
2022/12/03 10:22:36;;;;;;;29.00;18.48;;;5.70;99.90;;;;;;4871005;29;20076;-76
2022/12/03 10:25:09;;;;;;;28.90;18.50;;;5.70;99.90;;;;;;4859818;29;20043;-76
2022/12/03 10:27:35;;;;;;;25.23;18.05;;;5.70;99.90;;;;;;4871764;29;20036;-75
2022/12/03 10:30:03;;;;;;;26.50;18.67;;;5.80;99.90;;;;;;4844509;29;21959;-78
2022/12/03 10:32:39;;;;;;;26.85;18.60;;;5.80;99.90;;;;;;4860937;29;20064;-77
2022/12/03 10:35:12;;;;;;;28.63;18.35;;;6.00;99.90;;;;;;4856797;29;20048;-70
2022/12/03 10:37:58;;;;;;;27.95;18.38;;;6.00;99.90;;;;;;4855425;29;20044;-70
2022/12/03 10:40:35;;;;;;;36.75;22.20;;;6.00;99.90;;;;;;4866346;29;20494;-69
2022/12/03 10:43:19;;;;;;;29.90;19.33;;;6.00;99.90;;;;;;4868647;29;20167;-69
2022/12/03 10:45:50;;;;;;;28.05;20.08;;;6.10;99.90;;;;;;4867002;29;20048;-70
2022/12/03 10:48:18;;;;;;;27.45;18.88;;;6.20;99.90;;;;;;4869748;29;20048;-70
2022/12/03 10:50:55;;;;;;;29.88;19.20;;;6.20;99.90;;;;;;4871632;29;20392;-69
2022/12/03 10:53:24;;;;;;;29.77;21.23;;;6.30;99.90;;;;;;4866591;29;20044;-69
2022/12/03 10:55:51;;;;;;;44.58;27.85;;;6.30;99.90;;;;;;4871112;29;20048;-70
2022/12/03 10:58:26;;;;;;;49.95;31.40;;;6.40;99.90;;;;;;4876656;29;20494;-69
2022/12/03 11:00:54;;;;;;;29.05;19.85;;;6.40;99.90;;;;;;4873007;29;20398;-69
2022/12/03 11:03:22;;;;;;;34.08;20.67;;;6.40;99.90;;;;;;4869907;29;20065;-69
2022/12/03 11:05:49;;;;;;;27.70;18.80;;;6.40;99.90;;;;;;4865968;29;20481;-69
2022/12/03 11:08:18;;;;;;;27.70;19.73;;;6.30;99.90;;;;;;4870468;29;20164;-69
2022/12/03 11:10:45;;;;;;;31.42;22.33;;;6.30;99.90;;;;;;4864939;29;20053;-69
2022/12/03 11:13:31;;;;;;;79.68;56.50;;;6.30;99.90;;;;;;4869412;29;20032;-69
2022/12/03 11:15:57;;;;;;;40.90;27.48;;;6.30;99.90;;;;;;4862987;29;22060;-70
2022/12/03 11:18:35;;;;;;;30.98;21.63;;;6.30;99.90;;;;;;4882246;29;20052;-69
2022/12/03 11:21:09;;;;;;;29.05;19.95;;;6.40;99.90;;;;;;4891742;29;20580;-69
2022/12/03 11:23:47;;;;;;;28.92;19.63;;;6.50;99.90;;;;;;4887171;29;20044;-69
2022/12/03 11:26:36;;;;;;;27.40;19.75;;;6.50;99.90;;;;;;4886504;29;20931;-71
2022/12/03 11:29:01;;;;;;;29.27;20.70;;;6.50;99.90;;;;;;4888291;29;20115;-72
2022/12/03 11:31:43;;;;;;;30.88;21.35;;;6.50;99.90;;;;;;4888726;29;20052;-70
2022/12/03 11:34:18;;;;;;;38.50;30.25;;;6.50;99.90;;;;;;4870877;29;20139;-70
2022/12/03 11:37:08;;;;;;;31.27;23.80;;;6.50;99.90;;;;;;4884675;29;20052;-70
2022/12/03 11:39:49;;;;;;;28.17;20.45;;;6.50;99.90;;;;;;4884683;29;20047;-71
2022/12/03 11:42:27;;;;;;;34.63;23.02;;;6.60;99.90;;;;;;4885107;29;21834;-70
2022/12/03 11:45:04;;;;;;;44.33;23.00;;;6.60;99.90;;;;;;4878389;29;20052;-70
2022/12/03 11:47:39;;;;;;;37.42;22.88;;;6.70;99.90;;;;;;4889959;29;20508;-70
2022/12/03 11:50:16;;;;;;;37.20;24.45;;;6.70;99.90;;;;;;4883417;29;20045;-70
2022/12/03 11:52:44;;;;;;;29.35;21.65;;;6.80;99.90;;;;;;4887135;29;20493;-70
2022/12/03 11:55:27;;;;;;;29.55;20.65;;;6.80;99.90;;;;;;4882596;29;20493;-70
2022/12/03 11:58:11;;;;;;;30.50;21.23;;;6.80;99.90;;;;;;4885032;29;20055;-70
2022/12/03 12:00:37;;;;;;;34.65;21.40;;;6.70;99.90;;;;;;4888685;29;20227;-70
2022/12/03 12:03:03;;;;;;;31.33;20.83;;;6.70;99.90;;;;;;4889908;29;20063;-70
2022/12/03 12:05:31;;;;;;;41.90;21.27;;;6.60;99.90;;;;;;4885158;29;20044;-70
2022/12/03 12:07:58;;;;;;;37.30;27.50;;;6.60;99.90;;;;;;4886541;29;20059;-78
2022/12/03 12:10:41;;;;;;;30.33;22.48;;;6.60;99.90;;;;;;4890786;29;20552;-78
2022/12/03 12:13:25;;;;;;;32.65;20.90;;;6.70;99.90;;;;;;4897033;29;20039;-78
2022/12/03 12:15:50;;;;;;;29.35;20.55;;;6.70;99.90;;;;;;4898433;29;20557;-77
2022/12/03 12:18:35;;;;;;;40.83;29.38;;;6.70;99.90;;;;;;4884425;29;20044;-78
2022/12/03 12:21:41;;;;;;;35.42;25.63;;;6.70;99.90;;;;;;4871537;29;20040;-80
2022/12/03 12:24:28;;;;;;;31.42;22.52;;;6.70;99.90;;;;;;4872767;29;20056;-71
2022/12/03 12:26:55;;;;;;;40.45;25.60;;;6.70;99.90;;;;;;4870012;29;21126;-70
2022/12/03 12:29:20;;;;;;;39.15;27.63;;;6.80;99.90;;;;;;4870275;29;22007;-70
2022/12/03 12:31:48;;;;;;;38.67;25.98;;;6.80;99.90;;;;;;4876515;29;20115;-70
2022/12/03 12:34:14;;;;;;;31.45;21.55;;;6.80;99.90;;;;;;4877275;29;20100;-70
2022/12/03 12:36:40;;;;;;;36.83;23.67;;;6.80;99.90;;;;;;4882333;29;20048;-70
2022/12/03 12:39:13;;;;;;;30.17;21.77;;;6.80;99.90;;;;;;4877807;29;20041;-71
2022/12/03 12:41:40;;;;;;;35.00;23.85;;;6.80;99.90;;;;;;4878696;29;20041;-71
2022/12/03 12:44:10;;;;;;;30.88;21.40;;;6.80;99.90;;;;;;4882707;29;20127;-70
2022/12/03 12:46:45;;;;;;;36.55;21.52;;;6.90;99.90;;;;;;4876376;29;20033;-70
2022/12/03 12:49:13;;;;;;;33.75;21.70;;;6.90;99.90;;;;;;4859443;29;20112;-70
2022/12/03 12:51:46;;;;;;;33.80;21.83;;;6.90;99.90;;;;;;4872406;29;20033;-71
2022/12/03 12:54:14;;;;;;;32.53;22.10;;;6.90;99.90;;;;;;4877228;29;20537;-70
2022/12/03 12:56:43;;;;;;;35.05;22.23;;;7.00;99.90;;;;;;4864759;29;20044;-70
2022/12/03 12:59:14;;;;;;;29.17;22.10;;;7.00;99.90;;;;;;4870939;29;20052;-71
2022/12/03 13:01:40;;;;;;;34.10;24.60;;;7.10;99.90;;;;;;4872502;29;20097;-71
2022/12/03 13:04:18;;;;;;;29.02;20.27;;;7.10;99.90;;;;;;4867830;29;20063;-71
2022/12/03 13:06:50;;;;;;;25.88;19.35;;;7.10;99.90;;;;;;4876186;29;20045;-71
2022/12/03 13:09:19;;;;;;;27.08;18.00;;;7.10;99.90;;;;;;4878156;29;20048;-70
2022/12/03 13:11:50;;;;;;;28.63;18.23;;;7.10;99.90;;;;;;4862187;29;21502;-70
2022/12/03 13:14:19;;;;;;;28.63;18.67;;;7.10;99.90;;;;;;4877990;29;20040;-71
2022/12/03 13:16:47;;;;;;;30.05;17.98;;;7.10;99.90;;;;;;4879801;29;20040;-70
2022/12/03 13:19:23;;;;;;;31.15;21.33;;;7.10;99.90;;;;;;4872316;29;20055;-70
2022/12/03 13:21:50;;;;;;;30.40;19.63;;;7.20;99.90;;;;;;4877146;29;20052;-70
2022/12/03 13:24:33;;;;;;;28.52;18.48;;;7.10;99.90;;;;;;4868514;29;20056;-70
2022/12/03 13:27:15;;;;;;;30.30;20.45;;;7.10;99.90;;;;;;4873224;29;20155;-71
2022/12/03 13:29:41;;;;;;;28.92;20.33;;;7.10;99.90;;;;;;4872560;29;20048;-71
2022/12/03 13:32:21;;;;;;;30.88;20.35;;;7.20;99.90;;;;;;4876687;29;20545;-71
2022/12/03 13:34:49;;;;;;;28.75;20.63;;;7.10;99.90;;;;;;4874453;29;20037;-70
2022/12/03 13:37:21;;;;;;;32.42;22.25;;;7.20;99.90;;;;;;4874596;29;20047;-71
2022/12/03 13:39:48;;;;;;;;;;;7.20;99.90;;;;;;4875937;29;20175;-70
2022/12/03 13:45:15;;;;;;;33.03;22.30;;;7.10;99.90;;;;;;4874037;29;20115;-71
2022/12/03 13:47:42;;;;;;;33.47;22.95;;;7.20;99.90;;;;;;4878317;29;20447;-71
2022/12/03 13:50:39;;;;;;;32.35;22.52;;;7.10;99.90;;;;;;4877102;29;20073;-71